Airfield :
LOGIN :

Register | Disclaimer

   EN    FR    IT 

 










Legend :    VFR   Marginal VFR   IFR   Intensive IFR   Very Intensive IFR
Visi :
Ceiling :
>= 8 km
>= 3000ft
5 to 8 km
1000 to 3000 ft
1500m to 5 km
500 to 1000 ft
800 to 1500m
200 to 500 ft
< 800m
< 200 ft
Symbols :   Thunderstorms  Fog  Heavy snow  Heavy precipitations  Wind > 20 kt
SIGMETs :     Misc.  Thunderstorms  Icing  Turbulence  Mountain Waves  Volcanic Ashes







- Airport Elevation : 13 ft
- IATA code : GOA


LIMJ - Genoa Cristoforo Colombo

CURRENT METAR :
  • 220850Z 11011KT 9999 SCT016 BKN028 15/11 Q1020

EXPIRED METARs :
  • 220820Z 13014KT 9999 SCT016 BKN028 15/11 Q1020
  • 220750Z 14011KT 9999 -RA SCT016 BKN028 15/12 Q1020
  • 220720Z 19007KT 9999 -DZRA SCT016 BKN030 15/12 Q1020
  • 220650Z 15007KT 130V200 9999 -DZRA SCT016 BKN025 15/13 Q1019
  • 220620Z 14015KT 9999 -DZ SCT016 BKN025 15/13 Q1019

TAF TAF LIMJ
Valid from the 22 at 06:00 until the 23 at 06:00 UTC


220500Z 2206/2306 13012KT 9999 SCT020 BKN035
TEMPO 2222/2306 RA
No reported NOTAMs for that airfield.



MET'MAP, your aeronautical weather chart ! - Copyright ORBIFLY December 2007 - Disclaimer

ORBIFLY MET'MAP TEAM :

Programming & Development : Alexandra Zaïnal
Concept & Development : Baudouin d'Aumeries
Co-Development & Prog : Marc-Olivier Méhu
Technical & hardware support : Manuel Goepfert

Contact : metmap@orbifly.com




SOURCES & CREDITS :

   NOAA